sensor_id;sensor_type;location;lat;lon;timestamp;temperature;humidity
16893;DHT22;8563;52.242;9.098;2022-09-12T00:00:08;14.10;99.90
16893;DHT22;8563;52.242;9.098;2022-09-12T00:02:42;14.10;99.90
16893;DHT22;8563;52.242;9.098;2022-09-12T00:05:15;14.10;99.90
16893;DHT22;8563;52.242;9.098;2022-09-12T00:07:47;14.10;99.90
16893;DHT22;8563;52.242;9.098;2022-09-12T00:10:21;14.10;99.90
16893;DHT22;8563;52.242;9.098;2022-09-12T00:12:53;14.00;99.90
16893;DHT22;8563;52.242;9.098;2022-09-12T00:15:26;14.00;99.90
16893;DHT22;8563;52.242;9.098;2022-09-12T00:17:58;13.90;99.90
16893;DHT22;8563;52.242;9.098;2022-09-12T00:20:31;13.90;99.90
16893;DHT22;8563;52.242;9.098;2022-09-12T00:23:03;13.90;99.90
16893;DHT22;8563;52.242;9.098;2022-09-12T00:25:41;13.90;99.90
16893;DHT22;8563;52.242;9.098;2022-09-12T00:28:15;13.80;99.90
16893;DHT22;8563;52.242;9.098;2022-09-12T00:30:48;13.80;99.90
16893;DHT22;8563;52.242;9.098;2022-09-12T00:33:21;13.80;99.90
16893;DHT22;8563;52.242;9.098;2022-09-12T00:35:53;13.80;99.90
16893;DHT22;8563;52.242;9.098;2022-09-12T00:38:26;13.70;99.90
16893;DHT22;8563;52.242;9.098;2022-09-12T00:40:59;13.70;99.90
16893;DHT22;8563;52.242;9.098;2022-09-12T00:43:35;13.70;99.90
16893;DHT22;8563;52.242;9.098;2022-09-12T00:46:25;13.70;99.90
16893;DHT22;8563;52.242;9.098;2022-09-12T00:49:02;13.60;99.90
16893;DHT22;8563;52.242;9.098;2022-09-12T00:51:36;13.60;99.90
16893;DHT22;8563;52.242;9.098;2022-09-12T00:54:12;13.60;99.90
16893;DHT22;8563;52.242;9.098;2022-09-12T00:56:51;13.60;99.90
16893;DHT22;8563;52.242;9.098;2022-09-12T00:59:26;13.50;99.90
16893;DHT22;8563;52.242;9.098;2022-09-12T01:02:00;13.60;99.90
16893;DHT22;8563;52.242;9.098;2022-09-12T01:04:35;13.50;99.90
16893;DHT22;8563;52.242;9.098;2022-09-12T01:07:08;13.50;99.90
16893;DHT22;8563;52.242;9.098;2022-09-12T01:09:41;13.50;99.90
16893;DHT22;8563;52.242;9.098;2022-09-12T01:12:16;13.50;99.90
16893;DHT22;8563;52.242;9.098;2022-09-12T01:14:49;13.50;99.90
16893;DHT22;8563;52.242;9.098;2022-09-12T01:17:24;13.50;99.90
16893;DHT22;8563;52.242;9.098;2022-09-12T01:23:37;13.50;99.90
16893;DHT22;8563;52.242;9.098;2022-09-12T01:26:30;13.50;99.90
16893;DHT22;8563;52.242;9.098;2022-09-12T01:29:34;13.50;99.90
16893;DHT22;8563;52.242;9.098;2022-09-12T01:32:18;13.50;99.90
16893;DHT22;8563;52.242;9.098;2022-09-12T01:34:57;13.50;99.90
16893;DHT22;8563;52.242;9.098;2022-09-12T01:37:38;13.50;99.90
16893;DHT22;8563;52.242;9.098;2022-09-12T01:40:21;13.50;99.90
16893;DHT22;8563;52.242;9.098;2022-09-12T01:43:00;13.50;99.90
16893;DHT22;8563;52.242;9.098;2022-09-12T01:45:39;13.50;99.90
16893;DHT22;8563;52.242;9.098;2022-09-12T01:48:18;13.50;99.90
16893;DHT22;8563;52.242;9.098;2022-09-12T01:50:58;13.50;99.90
16893;DHT22;8563;52.242;9.098;2022-09-12T01:53:37;13.50;99.90
16893;DHT22;8563;52.242;9.098;2022-09-12T01:56:16;13.50;99.90
16893;DHT22;8563;52.242;9.098;2022-09-12T01:58:57;13.50;99.90
16893;DHT22;8563;52.242;9.098;2022-09-12T02:01:37;13.50;99.90
16893;DHT22;8563;52.242;9.098;2022-09-12T02:04:15;13.50;99.90
16893;DHT22;8563;52.242;9.098;2022-09-12T02:06:54;13.40;99.90
16893;DHT22;8563;52.242;9.098;2022-09-12T02:09:34;13.40;99.90
16893;DHT22;8563;52.242;9.098;2022-09-12T02:12:10;13.40;99.90
16893;DHT22;8563;52.242;9.098;2022-09-12T02:14:47;13.40;99.90
16893;DHT22;8563;52.242;9.098;2022-09-12T02:17:22;13.40;99.90
16893;DHT22;8563;52.242;9.098;2022-09-12T02:20:02;13.40;99.90
16893;DHT22;8563;52.242;9.098;2022-09-12T02:22:37;13.40;99.90
16893;DHT22;8563;52.242;9.098;2022-09-12T02:25:12;13.40;99.90
16893;DHT22;8563;52.242;9.098;2022-09-12T02:27:49;13.40;99.90
16893;DHT22;8563;52.242;9.098;2022-09-12T02:30:23;13.40;99.90
16893;DHT22;8563;52.242;9.098;2022-09-12T02:32:59;13.40;99.90
16893;DHT22;8563;52.242;9.098;2022-09-12T02:35:38;13.40;99.90
16893;DHT22;8563;52.242;9.098;2022-09-12T02:38:19;13.30;99.90
16893;DHT22;8563;52.242;9.098;2022-09-12T02:40:53;13.30;99.90
16893;DHT22;8563;52.242;9.098;2022-09-12T02:43:26;13.30;99.90
16893;DHT22;8563;52.242;9.098;2022-09-12T02:45:58;13.30;99.90
16893;DHT22;8563;52.242;9.098;2022-09-12T02:48:34;13.30;99.90
16893;DHT22;8563;52.242;9.098;2022-09-12T02:51:10;13.30;99.90
16893;DHT22;8563;52.242;9.098;2022-09-12T02:53:43;13.30;99.90
16893;DHT22;8563;52.242;9.098;2022-09-12T02:56:18;13.30;99.90
16893;DHT22;8563;52.242;9.098;2022-09-12T02:58:52;13.20;99.90
16893;DHT22;8563;52.242;9.098;2022-09-12T03:01:40;13.20;99.90
16893;DHT22;8563;52.242;9.098;2022-09-12T03:04:39;13.20;99.90
16893;DHT22;8563;52.242;9.098;2022-09-12T03:07:23;13.20;99.90
16893;DHT22;8563;52.242;9.098;2022-09-12T03:10:02;13.20;99.90
16893;DHT22;8563;52.242;9.098;2022-09-12T03:12:46;13.20;99.90
16893;DHT22;8563;52.242;9.098;2022-09-12T03:15:31;13.20;99.90
16893;DHT22;8563;52.242;9.098;2022-09-12T03:18:20;13.20;99.90
16893;DHT22;8563;52.242;9.098;2022-09-12T03:21:00;13.20;99.90
16893;DHT22;8563;52.242;9.098;2022-09-12T03:23:38;13.10;99.90
16893;DHT22;8563;52.242;9.098;2022-09-12T03:26:17;13.10;99.90
16893;DHT22;8563;52.242;9.098;2022-09-12T03:28:53;13.10;99.90
16893;DHT22;8563;52.242;9.098;2022-09-12T03:31:25;13.00;99.90
16893;DHT22;8563;52.242;9.098;2022-09-12T03:33:59;13.00;99.90
16893;DHT22;8563;52.242;9.098;2022-09-12T03:36:32;13.00;99.90
16893;DHT22;8563;52.242;9.098;2022-09-12T03:39:05;13.00;99.90
16893;DHT22;8563;52.242;9.098;2022-09-12T03:41:38;13.00;99.90
16893;DHT22;8563;52.242;9.098;2022-09-12T03:44:11;13.00;99.90
16893;DHT22;8563;52.242;9.098;2022-09-12T03:46:43;13.00;99.90
16893;DHT22;8563;52.242;9.098;2022-09-12T03:49:16;13.00;99.90
16893;DHT22;8563;52.242;9.098;2022-09-12T03:51:48;13.00;99.90
16893;DHT22;8563;52.242;9.098;2022-09-12T03:54:23;13.00;99.90
16893;DHT22;8563;52.242;9.098;2022-09-12T03:56:55;12.90;99.90
16893;DHT22;8563;52.242;9.098;2022-09-12T03:59:27;13.00;99.90
16893;DHT22;8563;52.242;9.098;2022-09-12T04:02:00;13.00;99.90
16893;DHT22;8563;52.242;9.098;2022-09-12T04:04:33;13.00;99.90
16893;DHT22;8563;52.242;9.098;2022-09-12T04:07:05;12.90;99.90
16893;DHT22;8563;52.242;9.098;2022-09-12T04:09:39;12.90;99.90
16893;DHT22;8563;52.242;9.098;2022-09-12T04:12:12;12.90;99.90
16893;DHT22;8563;52.242;9.098;2022-09-12T04:14:45;12.90;99.90
16893;DHT22;8563;52.242;9.098;2022-09-12T04:17:17;12.90;99.90
16893;DHT22;8563;52.242;9.098;2022-09-12T04:19:50;12.80;99.90
16893;DHT22;8563;52.242;9.098;2022-09-12T04:22:22;12.90;99.90
16893;DHT22;8563;52.242;9.098;2022-09-12T04:24:56;12.80;99.90
16893;DHT22;8563;52.242;9.098;2022-09-12T04:27:28;12.80;99.90
16893;DHT22;8563;52.242;9.098;2022-09-12T04:30:01;12.80;99.90
16893;DHT22;8563;52.242;9.098;2022-09-12T04:32:34;12.80;99.90
16893;DHT22;8563;52.242;9.098;2022-09-12T04:35:08;12.80;99.90
16893;DHT22;8563;52.242;9.098;2022-09-12T04:37:42;12.80;99.90
16893;DHT22;8563;52.242;9.098;2022-09-12T04:40:16;12.80;99.90
16893;DHT22;8563;52.242;9.098;2022-09-12T04:42:48;12.80;99.90
16893;DHT22;8563;52.242;9.098;2022-09-12T04:45:21;12.80;99.90
16893;DHT22;8563;52.242;9.098;2022-09-12T04:47:54;12.80;99.90
16893;DHT22;8563;52.242;9.098;2022-09-12T04:50:27;12.80;99.90
16893;DHT22;8563;52.242;9.098;2022-09-12T04:52:59;12.80;99.90
16893;DHT22;8563;52.242;9.098;2022-09-12T04:55:34;12.80;99.90
16893;DHT22;8563;52.242;9.098;2022-09-12T04:58:07;12.80;99.90
16893;DHT22;8563;52.242;9.098;2022-09-12T05:00:39;12.90;99.90
16893;DHT22;8563;52.242;9.098;2022-09-12T05:03:11;12.90;99.90
16893;DHT22;8563;52.242;9.098;2022-09-12T05:05:44;12.80;99.90
16893;DHT22;8563;52.242;9.098;2022-09-12T05:08:16;12.80;99.90
16893;DHT22;8563;52.242;9.098;2022-09-12T05:10:50;12.90;99.90
16893;DHT22;8563;52.242;9.098;2022-09-12T05:13:23;12.80;99.90
16893;DHT22;8563;52.242;9.098;2022-09-12T05:15:58;12.90;99.90
16893;DHT22;8563;52.242;9.098;2022-09-12T05:18:31;12.80;99.90
16893;DHT22;8563;52.242;9.098;2022-09-12T05:21:06;12.90;99.90
16893;DHT22;8563;52.242;9.098;2022-09-12T05:23:39;12.90;99.90
16893;DHT22;8563;52.242;9.098;2022-09-12T05:26:14;12.90;99.90
16893;DHT22;8563;52.242;9.098;2022-09-12T05:28:47;12.90;99.90
16893;DHT22;8563;52.242;9.098;2022-09-12T05:31:21;13.00;99.90
16893;DHT22;8563;52.242;9.098;2022-09-12T05:33:55;13.10;99.90
16893;DHT22;8563;52.242;9.098;2022-09-12T05:36:29;13.10;99.90
16893;DHT22;8563;52.242;9.098;2022-09-12T05:39:02;13.10;99.90
16893;DHT22;8563;52.242;9.098;2022-09-12T05:41:36;13.20;99.90
16893;DHT22;8563;52.242;9.098;2022-09-12T05:44:11;13.30;99.90
16893;DHT22;8563;52.242;9.098;2022-09-12T05:46:44;13.30;99.90
16893;DHT22;8563;52.242;9.098;2022-09-12T05:49:20;13.40;99.90
16893;DHT22;8563;52.242;9.098;2022-09-12T05:51:53;13.50;99.90
16893;DHT22;8563;52.242;9.098;2022-09-12T05:54:26;13.60;99.90
16893;DHT22;8563;52.242;9.098;2022-09-12T05:57:00;13.70;99.90
16893;DHT22;8563;52.242;9.098;2022-09-12T05:59:32;14.00;99.90
16893;DHT22;8563;52.242;9.098;2022-09-12T06:02:05;14.30;99.90
16893;DHT22;8563;52.242;9.098;2022-09-12T06:04:38;14.50;99.90
16893;DHT22;8563;52.242;9.098;2022-09-12T06:07:11;14.70;99.90
16893;DHT22;8563;52.242;9.098;2022-09-12T06:09:44;14.90;99.90
16893;DHT22;8563;52.242;9.098;2022-09-12T06:12:18;15.00;99.90
16893;DHT22;8563;52.242;9.098;2022-09-12T06:14:50;15.20;99.90
16893;DHT22;8563;52.242;9.098;2022-09-12T06:17:23;15.20;99.90
16893;DHT22;8563;52.242;9.098;2022-09-12T06:19:56;15.30;99.90
16893;DHT22;8563;52.242;9.098;2022-09-12T06:22:28;15.40;99.90
16893;DHT22;8563;52.242;9.098;2022-09-12T06:25:01;15.50;99.90
16893;DHT22;8563;52.242;9.098;2022-09-12T06:27:34;15.60;99.90
16893;DHT22;8563;52.242;9.098;2022-09-12T06:30:07;15.70;99.90
16893;DHT22;8563;52.242;9.098;2022-09-12T06:32:40;15.80;99.90
16893;DHT22;8563;52.242;9.098;2022-09-12T06:35:13;15.90;99.90
16893;DHT22;8563;52.242;9.098;2022-09-12T06:37:45;16.00;99.90
16893;DHT22;8563;52.242;9.098;2022-09-12T06:40:18;16.00;99.90
16893;DHT22;8563;52.242;9.098;2022-09-12T06:42:52;16.10;99.90
16893;DHT22;8563;52.242;9.098;2022-09-12T06:45:36;16.10;99.90
16893;DHT22;8563;52.242;9.098;2022-09-12T06:48:08;16.00;99.90
16893;DHT22;8563;52.242;9.098;2022-09-12T06:50:40;16.10;99.90
16893;DHT22;8563;52.242;9.098;2022-09-12T06:53:13;16.10;99.90
16893;DHT22;8563;52.242;9.098;2022-09-12T06:55:46;16.10;99.90
16893;DHT22;8563;52.242;9.098;2022-09-12T06:58:20;16.10;99.90
16893;DHT22;8563;52.242;9.098;2022-09-12T07:00:59;16.10;99.90
16893;DHT22;8563;52.242;9.098;2022-09-12T07:03:33;16.10;99.90
16893;DHT22;8563;52.242;9.098;2022-09-12T07:06:07;16.10;99.90
16893;DHT22;8563;52.242;9.098;2022-09-12T07:08:40;16.10;99.90
16893;DHT22;8563;52.242;9.098;2022-09-12T07:11:15;16.10;99.90
16893;DHT22;8563;52.242;9.098;2022-09-12T07:13:51;16.10;99.90
16893;DHT22;8563;52.242;9.098;2022-09-12T07:16:24;16.20;99.90
16893;DHT22;8563;52.242;9.098;2022-09-12T07:18:58;16.20;99.90
16893;DHT22;8563;52.242;9.098;2022-09-12T07:21:30;16.30;99.90
16893;DHT22;8563;52.242;9.098;2022-09-12T07:24:06;16.40;99.90
16893;DHT22;8563;52.242;9.098;2022-09-12T07:26:40;16.40;99.90
16893;DHT22;8563;52.242;9.098;2022-09-12T07:29:16;16.40;99.90
16893;DHT22;8563;52.242;9.098;2022-09-12T07:31:48;16.50;99.90
16893;DHT22;8563;52.242;9.098;2022-09-12T07:34:21;16.60;99.90
16893;DHT22;8563;52.242;9.098;2022-09-12T07:36:53;16.70;99.90
16893;DHT22;8563;52.242;9.098;2022-09-12T07:39:26;16.70;99.90
16893;DHT22;8563;52.242;9.098;2022-09-12T07:41:58;16.70;99.90
16893;DHT22;8563;52.242;9.098;2022-09-12T07:44:32;16.80;99.90
16893;DHT22;8563;52.242;9.098;2022-09-12T07:47:05;16.80;99.90
16893;DHT22;8563;52.242;9.098;2022-09-12T07:49:37;16.90;99.90
16893;DHT22;8563;52.242;9.098;2022-09-12T07:52:10;17.00;99.90
16893;DHT22;8563;52.242;9.098;2022-09-12T07:54:42;17.10;99.90
16893;DHT22;8563;52.242;9.098;2022-09-12T07:57:15;17.10;99.90
16893;DHT22;8563;52.242;9.098;2022-09-12T07:59:49;17.30;99.90
16893;DHT22;8563;52.242;9.098;2022-09-12T08:02:21;17.30;99.90
16893;DHT22;8563;52.242;9.098;2022-09-12T08:04:53;17.40;99.90
16893;DHT22;8563;52.242;9.098;2022-09-12T08:07:26;17.50;99.90
16893;DHT22;8563;52.242;9.098;2022-09-12T08:09:58;17.50;99.90
16893;DHT22;8563;52.242;9.098;2022-09-12T08:12:30;17.60;99.90
16893;DHT22;8563;52.242;9.098;2022-09-12T08:15:06;17.80;99.90
16893;DHT22;8563;52.242;9.098;2022-09-12T08:17:39;17.80;99.90
16893;DHT22;8563;52.242;9.098;2022-09-12T08:20:12;17.90;99.90
16893;DHT22;8563;52.242;9.098;2022-09-12T08:22:44;18.00;99.90
16893;DHT22;8563;52.242;9.098;2022-09-12T08:25:17;18.10;99.90
16893;DHT22;8563;52.242;9.098;2022-09-12T08:27:49;18.30;99.80
16893;DHT22;8563;52.242;9.098;2022-09-12T08:30:23;18.30;99.70
16893;DHT22;8563;52.242;9.098;2022-09-12T08:32:55;18.40;99.40
16893;DHT22;8563;52.242;9.098;2022-09-12T08:35:28;18.40;99.30
16893;DHT22;8563;52.242;9.098;2022-09-12T08:38:00;18.50;99.10
16893;DHT22;8563;52.242;9.098;2022-09-12T08:40:43;18.60;98.90
16893;DHT22;8563;52.242;9.098;2022-09-12T08:43:32;18.60;98.90
16893;DHT22;8563;52.242;9.098;2022-09-12T08:46:10;18.70;98.90
16893;DHT22;8563;52.242;9.098;2022-09-12T08:48:45;18.90;99.10
16893;DHT22;8563;52.242;9.098;2022-09-12T08:51:19;19.10;98.30
16893;DHT22;8563;52.242;9.098;2022-09-12T08:53:52;19.30;97.50
16893;DHT22;8563;52.242;9.098;2022-09-12T08:56:28;19.40;97.30
16893;DHT22;8563;52.242;9.098;2022-09-12T08:59:03;19.40;96.80
16893;DHT22;8563;52.242;9.098;2022-09-12T09:01:42;19.40;96.20
16893;DHT22;8563;52.242;9.098;2022-09-12T09:04:27;19.40;96.60
16893;DHT22;8563;52.242;9.098;2022-09-12T09:07:38;19.50;95.80
16893;DHT22;8563;52.242;9.098;2022-09-12T09:10:26;19.60;96.30
16893;DHT22;8563;52.242;9.098;2022-09-12T09:13:06;19.70;96.40
16893;DHT22;8563;52.242;9.098;2022-09-12T09:15:47;19.90;96.50
16893;DHT22;8563;52.242;9.098;2022-09-12T09:18:31;20.00;95.50
16893;DHT22;8563;52.242;9.098;2022-09-12T09:21:10;20.00;95.90
16893;DHT22;8563;52.242;9.098;2022-09-12T09:23:47;20.10;94.60
16893;DHT22;8563;52.242;9.098;2022-09-12T09:26:26;20.10;95.00
16893;DHT22;8563;52.242;9.098;2022-09-12T09:29:06;20.00;94.90
16893;DHT22;8563;52.242;9.098;2022-09-12T09:31:43;20.10;95.20
16893;DHT22;8563;52.242;9.098;2022-09-12T09:34:22;20.10;94.70
16893;DHT22;8563;52.242;9.098;2022-09-12T09:36:58;20.20;95.20
16893;DHT22;8563;52.242;9.098;2022-09-12T09:39:41;20.20;94.30
16893;DHT22;8563;52.242;9.098;2022-09-12T09:42:28;20.20;94.60
16893;DHT22;8563;52.242;9.098;2022-09-12T09:45:10;20.20;94.70
16893;DHT22;8563;52.242;9.098;2022-09-12T09:47:45;20.20;94.70
16893;DHT22;8563;52.242;9.098;2022-09-12T09:50:19;20.30;94.40
16893;DHT22;8563;52.242;9.098;2022-09-12T09:52:53;20.40;94.10
16893;DHT22;8563;52.242;9.098;2022-09-12T09:55:33;20.50;94.50
16893;DHT22;8563;52.242;9.098;2022-09-12T09:58:10;20.60;93.60
16893;DHT22;8563;52.242;9.098;2022-09-12T10:00:42;20.70;93.00
16893;DHT22;8563;52.242;9.098;2022-09-12T10:03:33;20.60;92.60
16893;DHT22;8563;52.242;9.098;2022-09-12T10:06:22;20.80;93.40
16893;DHT22;8563;52.242;9.098;2022-09-12T10:09:16;20.70;92.30
16893;DHT22;8563;52.242;9.098;2022-09-12T10:11:50;20.80;92.10
16893;DHT22;8563;52.242;9.098;2022-09-12T10:14:28;20.90;92.30
16893;DHT22;8563;52.242;9.098;2022-09-12T10:17:02;20.80;92.20
16893;DHT22;8563;52.242;9.098;2022-09-12T10:19:37;20.80;92.50
16893;DHT22;8563;52.242;9.098;2022-09-12T10:22:16;20.90;92.20
16893;DHT22;8563;52.242;9.098;2022-09-12T10:24:50;21.00;92.40
16893;DHT22;8563;52.242;9.098;2022-09-12T10:27:26;21.00;91.80
16893;DHT22;8563;52.242;9.098;2022-09-12T10:30:02;21.00;91.70
16893;DHT22;8563;52.242;9.098;2022-09-12T10:32:37;21.00;91.40
16893;DHT22;8563;52.242;9.098;2022-09-12T10:35:17;21.10;91.60
16893;DHT22;8563;52.242;9.098;2022-09-12T10:37:54;21.20;91.80
16893;DHT22;8563;52.242;9.098;2022-09-12T10:40:29;21.30;91.70
16893;DHT22;8563;52.242;9.098;2022-09-12T10:43:15;21.30;91.30
16893;DHT22;8563;52.242;9.098;2022-09-12T10:45:48;21.40;91.80
16893;DHT22;8563;52.242;9.098;2022-09-12T10:48:27;21.50;91.40
16893;DHT22;8563;52.242;9.098;2022-09-12T10:51:01;21.40;90.90
16893;DHT22;8563;52.242;9.098;2022-09-12T10:53:41;21.40;91.30
16893;DHT22;8563;52.242;9.098;2022-09-12T10:56:18;21.30;91.10
16893;DHT22;8563;52.242;9.098;2022-09-12T10:59:06;21.30;91.20
16893;DHT22;8563;52.242;9.098;2022-09-12T11:01:42;21.20;91.20
16893;DHT22;8563;52.242;9.098;2022-09-12T11:04:36;21.20;91.00
16893;DHT22;8563;52.242;9.098;2022-09-12T11:07:35;21.40;91.20
16893;DHT22;8563;52.242;9.098;2022-09-12T11:10:20;21.50;90.90
16893;DHT22;8563;52.242;9.098;2022-09-12T11:13:05;21.50;91.00
16893;DHT22;8563;52.242;9.098;2022-09-12T11:15:57;21.40;89.80
16893;DHT22;8563;52.242;9.098;2022-09-12T11:18:46;21.50;89.10
16893;DHT22;8563;52.242;9.098;2022-09-12T11:21:33;21.60;90.30
16893;DHT22;8563;52.242;9.098;2022-09-12T11:24:34;21.70;89.80
16893;DHT22;8563;52.242;9.098;2022-09-12T11:27:20;21.70;90.00
16893;DHT22;8563;52.242;9.098;2022-09-12T11:29:58;21.70;89.50
16893;DHT22;8563;52.242;9.098;2022-09-12T11:33:03;21.70;89.10
16893;DHT22;8563;52.242;9.098;2022-09-12T11:35:42;21.80;88.60
16893;DHT22;8563;52.242;9.098;2022-09-12T11:38:39;22.00;87.50
16893;DHT22;8563;52.242;9.098;2022-09-12T11:41:17;22.10;84.70
16893;DHT22;8563;52.242;9.098;2022-09-12T11:43:57;22.20;84.70
16893;DHT22;8563;52.242;9.098;2022-09-12T11:46:35;22.20;83.30
16893;DHT22;8563;52.242;9.098;2022-09-12T11:49:18;22.30;84.30
16893;DHT22;8563;52.242;9.098;2022-09-12T11:51:56;22.50;81.70
16893;DHT22;8563;52.242;9.098;2022-09-12T11:54:34;22.60;80.60
16893;DHT22;8563;52.242;9.098;2022-09-12T11:57:15;22.50;75.80
16893;DHT22;8563;52.242;9.098;2022-09-12T11:59:53;22.40;76.40
16893;DHT22;8563;52.242;9.098;2022-09-12T12:02:29;22.30;76.60
16893;DHT22;8563;52.242;9.098;2022-09-12T12:05:13;22.20;75.60
16893;DHT22;8563;52.242;9.098;2022-09-12T12:07:52;22.20;77.40
16893;DHT22;8563;52.242;9.098;2022-09-12T12:10:32;22.10;75.50
16893;DHT22;8563;52.242;9.098;2022-09-12T12:13:13;22.20;73.00
16893;DHT22;8563;52.242;9.098;2022-09-12T12:15:52;22.30;74.90
16893;DHT22;8563;52.242;9.098;2022-09-12T12:18:27;22.40;75.50
16893;DHT22;8563;52.242;9.098;2022-09-12T12:21:28;22.50;72.30
16893;DHT22;8563;52.242;9.098;2022-09-12T12:24:16;22.50;73.00
16893;DHT22;8563;52.242;9.098;2022-09-12T12:26:56;22.50;73.00
16893;DHT22;8563;52.242;9.098;2022-09-12T12:29:40;22.50;73.80
16893;DHT22;8563;52.242;9.098;2022-09-12T12:32:23;22.50;72.20
16893;DHT22;8563;52.242;9.098;2022-09-12T12:35:36;22.40;71.90
16893;DHT22;8563;52.242;9.098;2022-09-12T12:38:27;22.40;72.30
16893;DHT22;8563;52.242;9.098;2022-09-12T12:44:47;22.20;72.70
16893;DHT22;8563;52.242;9.098;2022-09-12T12:47:23;22.20;72.00
16893;DHT22;8563;52.242;9.098;2022-09-12T12:49:59;22.20;71.40
16893;DHT22;8563;52.242;9.098;2022-09-12T12:52:43;22.20;72.80
16893;DHT22;8563;52.242;9.098;2022-09-12T12:55:23;22.30;73.90
16893;DHT22;8563;52.242;9.098;2022-09-12T12:57:57;22.50;73.00
16893;DHT22;8563;52.242;9.098;2022-09-12T13:00:33;22.60;72.10
16893;DHT22;8563;52.242;9.098;2022-09-12T13:03:20;22.70;71.90
16893;DHT22;8563;52.242;9.098;2022-09-12T13:06:01;22.50;67.00
16893;DHT22;8563;52.242;9.098;2022-09-12T13:08:37;22.50;69.40
16893;DHT22;8563;52.242;9.098;2022-09-12T13:11:14;22.40;71.00
16893;DHT22;8563;52.242;9.098;2022-09-12T13:13:50;22.40;70.90
16893;DHT22;8563;52.242;9.098;2022-09-12T13:16:32;22.50;69.30
16893;DHT22;8563;52.242;9.098;2022-09-12T13:19:12;22.50;69.30
16893;DHT22;8563;52.242;9.098;2022-09-12T13:21:54;22.40;66.30
16893;DHT22;8563;52.242;9.098;2022-09-12T13:24:27;22.40;68.10
16893;DHT22;8563;52.242;9.098;2022-09-12T13:26:59;22.40;69.90
16893;DHT22;8563;52.242;9.098;2022-09-12T13:29:32;22.40;70.60
16893;DHT22;8563;52.242;9.098;2022-09-12T13:32:05;22.40;69.20
16893;DHT22;8563;52.242;9.098;2022-09-12T13:34:51;22.40;69.20
16893;DHT22;8563;52.242;9.098;2022-09-12T13:37:44;22.40;69.20
16893;DHT22;8563;52.242;9.098;2022-09-12T13:40:29;22.40;67.20
16893;DHT22;8563;52.242;9.098;2022-09-12T13:43:11;22.40;66.90
16893;DHT22;8563;52.242;9.098;2022-09-12T13:45:45;22.40;67.60
16893;DHT22;8563;52.242;9.098;2022-09-12T13:48:20;22.40;67.90
16893;DHT22;8563;52.242;9.098;2022-09-12T13:50:58;22.40;67.40
16893;DHT22;8563;52.242;9.098;2022-09-12T13:53:39;22.40;68.40
16893;DHT22;8563;52.242;9.098;2022-09-12T13:56:15;22.50;68.30
16893;DHT22;8563;52.242;9.098;2022-09-12T13:58:53;22.60;69.40
16893;DHT22;8563;52.242;9.098;2022-09-12T14:01:37;22.60;68.40
16893;DHT22;8563;52.242;9.098;2022-09-12T14:04:15;22.60;68.10
16893;DHT22;8563;52.242;9.098;2022-09-12T14:07:13;22.60;67.80
16893;DHT22;8563;52.242;9.098;2022-09-12T14:09:53;22.60;66.50
16893;DHT22;8563;52.242;9.098;2022-09-12T14:12:29;22.60;65.10
16893;DHT22;8563;52.242;9.098;2022-09-12T14:15:05;22.60;65.90
16893;DHT22;8563;52.242;9.098;2022-09-12T14:17:49;22.60;67.60
16893;DHT22;8563;52.242;9.098;2022-09-12T14:20:23;22.60;66.60
16893;DHT22;8563;52.242;9.098;2022-09-12T14:22:59;22.60;68.00
16893;DHT22;8563;52.242;9.098;2022-09-12T14:25:36;22.60;66.60
16893;DHT22;8563;52.242;9.098;2022-09-12T14:28:13;22.50;66.80
16893;DHT22;8563;52.242;9.098;2022-09-12T14:30:57;22.50;67.60
16893;DHT22;8563;52.242;9.098;2022-09-12T14:33:33;22.50;68.10
16893;DHT22;8563;52.242;9.098;2022-09-12T14:36:23;22.50;68.70
16893;DHT22;8563;52.242;9.098;2022-09-12T14:39:01;22.60;71.00
16893;DHT22;8563;52.242;9.098;2022-09-12T14:41:36;22.50;71.80
16893;DHT22;8563;52.242;9.098;2022-09-12T14:44:15;22.50;71.90
16893;DHT22;8563;52.242;9.098;2022-09-12T14:46:49;22.40;71.60
16893;DHT22;8563;52.242;9.098;2022-09-12T14:49:25;22.30;71.10
16893;DHT22;8563;52.242;9.098;2022-09-12T14:52:00;22.20;72.90
16893;DHT22;8563;52.242;9.098;2022-09-12T14:54:36;22.10;72.80
16893;DHT22;8563;52.242;9.098;2022-09-12T14:57:36;22.10;73.00
16893;DHT22;8563;52.242;9.098;2022-09-12T15:00:18;22.10;71.60
16893;DHT22;8563;52.242;9.098;2022-09-12T15:02:52;22.10;72.90
16893;DHT22;8563;52.242;9.098;2022-09-12T15:05:26;22.20;71.70
16893;DHT22;8563;52.242;9.098;2022-09-12T15:08:00;22.20;71.70
16893;DHT22;8563;52.242;9.098;2022-09-12T15:10:36;22.20;71.90
16893;DHT22;8563;52.242;9.098;2022-09-12T15:13:12;22.20;73.30
16893;DHT22;8563;52.242;9.098;2022-09-12T15:15:46;22.20;74.30
16893;DHT22;8563;52.242;9.098;2022-09-12T15:18:19;22.30;75.00
16893;DHT22;8563;52.242;9.098;2022-09-12T15:20:55;22.30;74.30
16893;DHT22;8563;52.242;9.098;2022-09-12T15:23:34;22.30;74.20
16893;DHT22;8563;52.242;9.098;2022-09-12T15:26:12;22.30;73.60
16893;DHT22;8563;52.242;9.098;2022-09-12T15:28:45;22.30;73.10
16893;DHT22;8563;52.242;9.098;2022-09-12T15:31:23;22.20;72.80
16893;DHT22;8563;52.242;9.098;2022-09-12T15:33:56;22.20;73.90
16893;DHT22;8563;52.242;9.098;2022-09-12T15:36:31;22.00;73.70
16893;DHT22;8563;52.242;9.098;2022-09-12T15:39:03;22.00;73.40
16893;DHT22;8563;52.242;9.098;2022-09-12T15:41:38;21.90;74.00
16893;DHT22;8563;52.242;9.098;2022-09-12T15:44:11;21.90;73.90
16893;DHT22;8563;52.242;9.098;2022-09-12T15:46:44;21.90;73.20
16893;DHT22;8563;52.242;9.098;2022-09-12T15:49:16;22.00;73.10
16893;DHT22;8563;52.242;9.098;2022-09-12T15:51:49;22.00;73.60
16893;DHT22;8563;52.242;9.098;2022-09-12T15:54:21;22.00;73.70
16893;DHT22;8563;52.242;9.098;2022-09-12T15:56:55;22.00;73.30
16893;DHT22;8563;52.242;9.098;2022-09-12T15:59:27;22.00;73.40
16893;DHT22;8563;52.242;9.098;2022-09-12T16:02:01;22.00;73.90
16893;DHT22;8563;52.242;9.098;2022-09-12T16:04:33;22.00;74.50
16893;DHT22;8563;52.242;9.098;2022-09-12T16:07:05;21.90;74.20
16893;DHT22;8563;52.242;9.098;2022-09-12T16:09:38;21.80;74.50
16893;DHT22;8563;52.242;9.098;2022-09-12T16:12:12;21.80;74.90
16893;DHT22;8563;52.242;9.098;2022-09-12T16:14:44;21.70;75.10
16893;DHT22;8563;52.242;9.098;2022-09-12T16:17:17;21.60;75.40
16893;DHT22;8563;52.242;9.098;2022-09-12T16:19:49;21.60;75.80
16893;DHT22;8563;52.242;9.098;2022-09-12T16:22:22;21.60;75.90
16893;DHT22;8563;52.242;9.098;2022-09-12T16:24:55;21.60;76.30
16893;DHT22;8563;52.242;9.098;2022-09-12T16:27:29;21.50;76.00
16893;DHT22;8563;52.242;9.098;2022-09-12T16:30:02;21.50;76.30
16893;DHT22;8563;52.242;9.098;2022-09-12T16:32:34;21.40;77.20
16893;DHT22;8563;52.242;9.098;2022-09-12T16:35:08;21.40;78.00
16893;DHT22;8563;52.242;9.098;2022-09-12T16:37:40;21.30;78.00
16893;DHT22;8563;52.242;9.098;2022-09-12T16:40:13;21.30;77.50
16893;DHT22;8563;52.242;9.098;2022-09-12T16:42:49;21.30;78.20
16893;DHT22;8563;52.242;9.098;2022-09-12T16:45:21;21.30;78.00
16893;DHT22;8563;52.242;9.098;2022-09-12T16:47:55;21.20;79.00
16893;DHT22;8563;52.242;9.098;2022-09-12T16:50:27;21.10;79.40
16893;DHT22;8563;52.242;9.098;2022-09-12T16:53:00;21.10;80.20